Time;durP1;ratioP1;P1;durP2;ratioP2;P2;SDS_P1;SDS_P2;PMS_P1;PMS_P2;Temp;Humidity;BMP_temperature;BMP_pressure;BME280_temperature;BME280_humidity;BME280_pressure;Samples;Min_cycle;Max_cycle;Signal;HPM_P1;HPM_P2
2021/01/10 00:01:47;;;;;;;64.00;32.73;;;2.50;99.90;;;;;;4779021;29;20459;-79
2021/01/10 00:04:12;;;;;;;57.43;32.37;;;2.50;99.90;;;;;;4722205;30;20226;-79
2021/01/10 00:06:38;;;;;;;64.90;34.57;;;2.50;99.90;;;;;;4715870;30;20455;-79
2021/01/10 00:09:05;;;;;;;62.67;32.77;;;2.50;99.90;;;;;;4697722;30;20523;-79
2021/01/10 00:11:30;;;;;;;69.73;36.20;;;2.50;99.90;;;;;;4726020;30;20271;-79
2021/01/10 00:13:56;;;;;;;68.27;36.07;;;2.50;99.90;;;;;;4699730;30;21037;-79
2021/01/10 00:16:22;;;;;;;60.30;32.03;;;2.40;99.90;;;;;;4720378;30;20762;-80
2021/01/10 00:18:47;;;;;;;66.13;36.47;;;2.40;99.90;;;;;;4698659;30;20593;-80
2021/01/10 00:21:13;;;;;;;73.00;35.70;;;2.40;99.90;;;;;;4714722;30;20571;-79
2021/01/10 00:23:40;;;;;;;66.73;34.90;;;2.40;99.90;;;;;;4701358;30;20970;-79
2021/01/10 00:26:35;;;;;;;66.03;38.43;;;2.40;99.90;;;;;;4748632;29;20233;-79
2021/01/10 00:29:04;;;;;;;70.53;36.83;;;2.40;99.90;;;;;;4747537;29;20427;-79
2021/01/10 00:31:31;;;;;;;62.83;35.90;;;2.40;99.90;;;;;;4823924;29;20423;-79
2021/01/10 00:33:57;;;;;;;67.07;35.70;;;2.30;99.90;;;;;;4822989;29;20425;-79
2021/01/10 00:36:59;;;;;;;69.40;36.07;;;2.30;99.90;;;;;;4827030;29;20465;-79
2021/01/10 00:39:26;;;;;;;69.03;32.60;;;2.30;99.90;;;;;;4840686;29;20430;-79
2021/01/10 00:42:13;;;;;;;85.83;37.10;;;2.30;99.90;;;;;;4893961;29;20418;-79
2021/01/10 00:44:45;;;;;;;86.20;37.87;;;2.20;99.90;;;;;;4915468;29;20877;-79
2021/01/10 00:47:11;;;;;;;66.43;38.50;;;2.20;99.90;;;;;;4913042;28;20567;-79
2021/01/10 00:49:56;;;;;;;63.83;34.63;;;2.20;99.90;;;;;;4913779;29;20384;-79
2021/01/10 00:52:27;;;;;;;72.30;35.13;;;2.20;99.90;;;;;;4928963;28;21069;-79
2021/01/10 00:54:57;;;;;;;65.33;35.77;;;2.20;99.90;;;;;;4901053;29;20448;-79
2021/01/10 00:57:23;;;;;;;74.10;37.70;;;2.10;99.90;;;;;;4915370;28;20423;-79
2021/01/10 00:59:48;;;;;;;83.53;38.57;;;2.00;99.90;;;;;;4896470;29;20507;-79
2021/01/10 01:02:15;;;;;;;77.37;36.70;;;2.00;99.90;;;;;;4911230;29;20215;-79
2021/01/10 01:04:40;;;;;;;80.50;34.90;;;2.00;99.90;;;;;;4922561;28;20217;-79
2021/01/10 01:07:06;;;;;;;73.30;36.70;;;2.00;99.90;;;;;;4952156;28;20441;-79
2021/01/10 01:09:32;;;;;;;66.60;33.13;;;2.10;99.90;;;;;;4938892;28;20228;-79
2021/01/10 01:11:59;;;;;;;79.87;36.97;;;2.00;99.90;;;;;;4937615;28;20554;-79
2021/01/10 01:14:26;;;;;;;75.40;35.87;;;2.00;99.90;;;;;;4994685;28;20217;-79
2021/01/10 01:17:16;;;;;;;69.57;35.43;;;2.00;99.90;;;;;;4991928;28;20434;-79
2021/01/10 01:19:43;;;;;;;80.00;38.47;;;2.00;99.90;;;;;;4947083;28;20432;-79
2021/01/10 01:22:08;;;;;;;84.27;39.50;;;2.00;99.90;;;;;;4914926;28;20442;-79
2021/01/10 01:24:34;;;;;;;75.37;36.50;;;2.00;99.90;;;;;;4913194;28;20511;-79
2021/01/10 01:27:00;;;;;;;75.10;37.57;;;2.00;99.90;;;;;;4915571;28;20741;-79
2021/01/10 01:29:26;;;;;;;76.23;38.80;;;2.00;99.90;;;;;;4918046;28;20209;-79
2021/01/10 01:31:54;;;;;;;72.83;37.17;;;2.00;99.90;;;;;;4918389;28;20454;-79
2021/01/10 01:34:19;;;;;;;67.57;33.90;;;1.90;99.90;;;;;;4914758;28;20245;-79
2021/01/10 01:36:45;;;;;;;74.87;35.30;;;1.90;99.90;;;;;;4901590;28;20516;-79
2021/01/10 01:39:11;;;;;;;76.30;34.90;;;1.80;99.90;;;;;;4916155;28;20214;-79
2021/01/10 01:41:38;;;;;;;63.50;33.60;;;1.80;99.90;;;;;;4948908;28;20218;-79
2021/01/10 01:44:05;;;;;;;61.43;33.60;;;1.80;99.90;;;;;;4929592;28;20217;-79
2021/01/10 01:46:34;;;;;;;65.07;33.17;;;1.80;99.90;;;;;;4916152;28;21229;-79
2021/01/10 01:49:06;;;;;;;57.20;32.10;;;1.70;99.90;;;;;;4915787;28;20404;-79
2021/01/10 01:51:35;;;;;;;82.33;33.60;;;1.70;99.90;;;;;;4930707;28;20518;-79
2021/01/10 01:54:05;;;;;;;68.90;34.17;;;1.60;99.90;;;;;;4931682;28;20395;-78
2021/01/10 01:56:33;;;;;;;70.47;34.70;;;1.50;99.90;;;;;;4955276;28;20400;-79
2021/01/10 01:59:09;;;;;;;48.17;30.70;;;1.40;99.90;;;;;;5022455;28;20543;-79
2021/01/10 02:01:38;;;;;;;75.63;34.77;;;1.40;99.90;;;;;;5003119;28;20516;-79
2021/01/10 02:04:14;;;;;;;74.90;32.97;;;1.30;99.90;;;;;;5019512;28;20976;-79
2021/01/10 02:07:28;;;;;;;68.83;33.40;;;1.30;99.90;;;;;;5012786;28;21098;-79
2021/01/10 02:10:06;;;;;;;66.17;33.27;;;1.30;99.90;;;;;;4991913;28;20392;-79
2021/01/10 02:12:36;;;;;;;68.33;32.00;;;1.40;99.90;;;;;;5002304;28;20583;-79
2021/01/10 02:17:30;;;;;;;69.33;32.90;;;1.60;99.90;;;;;;4974639;28;20434;-77
2021/01/10 02:20:09;;;;;;;71.80;33.43;;;1.60;99.90;;;;;;4983986;28;20427;-77
2021/01/10 02:23:13;;;;;;;63.00;32.70;;;1.80;99.90;;;;;;4993621;28;20432;-77
2021/01/10 02:25:43;;;;;;;55.83;28.47;;;1.90;99.90;;;;;;5003549;28;20475;-77
2021/01/10 02:28:09;;;;;;;66.60;32.73;;;2.00;99.90;;;;;;4985395;28;20444;-77
2021/01/10 02:30:38;;;;;;;58.23;29.93;;;2.00;99.90;;;;;;5007348;28;20913;-77
2021/01/10 02:33:38;;;;;;;70.03;33.40;;;2.10;99.90;;;;;;4983413;28;20385;-77
2021/01/10 02:36:08;;;;;;;76.17;32.63;;;2.10;99.90;;;;;;4990685;28;21036;-78
2021/01/10 02:38:57;;;;;;;61.70;31.93;;;2.00;99.90;;;;;;4988971;28;20385;-76
2021/01/10 02:41:33;;;;;;;63.43;31.87;;;1.90;99.90;;;;;;5004586;28;20486;-77
2021/01/10 02:44:12;;;;;;;63.63;30.63;;;1.80;99.90;;;;;;5010483;28;20426;-77
2021/01/10 02:46:40;;;;;;;67.17;31.80;;;1.70;99.90;;;;;;4985367;28;20394;-77
2021/01/10 02:49:06;;;;;;;62.97;32.60;;;1.70;99.90;;;;;;5003686;28;20402;-77
2021/01/10 02:51:31;;;;;;;49.30;29.73;;;1.70;99.90;;;;;;4985509;28;20435;-77
2021/01/10 02:53:57;;;;;;;64.47;31.17;;;1.70;99.90;;;;;;4967725;28;20293;-78
2021/01/10 02:56:23;;;;;;;71.30;32.93;;;1.80;99.90;;;;;;4985231;28;20208;-76
2021/01/10 02:58:53;;;;;;;62.20;30.47;;;1.80;99.90;;;;;;4987368;28;20220;-78
2021/01/10 03:01:21;;;;;;;62.73;31.00;;;1.70;99.90;;;;;;4971168;28;20217;-77
2021/01/10 03:03:47;;;;;;;60.83;31.00;;;1.70;99.90;;;;;;4996916;28;21050;-77
2021/01/10 03:06:14;;;;;;;63.90;29.03;;;1.80;99.90;;;;;;4982402;28;20420;-77
2021/01/10 03:08:39;;;;;;;51.97;30.03;;;1.90;99.90;;;;;;4994188;28;20420;-77
2021/01/10 03:11:05;;;;;;;55.73;27.73;;;1.90;99.90;;;;;;4983413;28;20797;-78
2021/01/10 03:13:32;;;;;;;55.50;29.90;;;2.00;99.90;;;;;;4983848;28;20211;-78
2021/01/10 03:15:59;;;;;;;57.93;32.77;;;1.90;99.90;;;;;;5000516;28;20240;-77
2021/01/10 03:18:25;;;;;;;60.07;32.93;;;1.90;99.90;;;;;;4981409;28;20398;-76
2021/01/10 03:20:51;;;;;;;58.17;31.20;;;1.90;99.90;;;;;;4982372;28;20828;-76
2021/01/10 03:23:18;;;;;;;54.20;30.80;;;2.00;99.90;;;;;;4977380;28;20601;-78
2021/01/10 03:25:44;;;;;;;66.63;30.30;;;1.90;99.90;;;;;;4997288;28;20452;-77
2021/01/10 03:28:10;;;;;;;54.40;29.43;;;1.90;99.90;;;;;;4981470;28;20415;-76
2021/01/10 03:30:36;;;;;;;68.63;31.50;;;2.00;99.90;;;;;;4981695;28;20477;-77
2021/01/10 03:33:02;;;;;;;57.70;30.83;;;2.00;99.90;;;;;;4982703;28;20213;-77
2021/01/10 03:35:28;;;;;;;52.30;31.40;;;1.90;99.90;;;;;;4984248;28;20490;-77
2021/01/10 03:37:54;;;;;;;53.60;32.00;;;2.00;99.90;;;;;;4982149;28;20431;-77
2021/01/10 03:40:20;;;;;;;56.30;29.77;;;1.90;99.90;;;;;;4979942;28;20316;-77
2021/01/10 03:42:46;;;;;;;53.70;30.83;;;1.90;99.90;;;;;;4998715;28;20910;-77
2021/01/10 03:45:15;;;;;;;50.83;29.67;;;1.90;99.90;;;;;;4979581;28;20255;-78
2021/01/10 03:47:41;;;;;;;65.40;29.93;;;1.80;99.90;;;;;;4984643;28;20226;-77
2021/01/10 03:50:08;;;;;;;50.90;28.77;;;1.70;99.90;;;;;;4983905;28;20411;-77
2021/01/10 03:52:34;;;;;;;54.37;31.00;;;1.60;99.90;;;;;;4996902;28;20959;-77
2021/01/10 03:55:01;;;;;;;45.80;28.60;;;1.60;99.90;;;;;;4994735;28;20408;-77
2021/01/10 03:57:26;;;;;;;55.40;29.37;;;1.60;99.90;;;;;;4997104;28;20444;-77
2021/01/10 03:59:52;;;;;;;52.63;28.53;;;1.50;99.90;;;;;;4996744;28;20493;-76
2021/01/10 04:02:18;;;;;;;58.80;30.90;;;1.40;99.90;;;;;;4982790;28;20212;-76
2021/01/10 04:04:43;;;;;;;59.53;32.83;;;1.40;99.90;;;;;;4996347;28;20227;-76
2021/01/10 04:07:09;;;;;;;56.40;29.53;;;1.40;99.90;;;;;;4979572;28;20208;-78
2021/01/10 04:09:35;;;;;;;46.83;28.57;;;1.30;99.90;;;;;;4965362;28;20209;-77
2021/01/10 04:12:00;;;;;;;54.53;30.03;;;1.20;99.90;;;;;;4986440;28;20316;-77
2021/01/10 04:14:26;;;;;;;55.97;28.57;;;1.10;99.90;;;;;;4982933;28;20296;-77
2021/01/10 04:16:53;;;;;;;52.50;29.07;;;0.90;99.90;;;;;;4987874;28;20234;-76
2021/01/10 04:19:19;;;;;;;53.83;29.00;;;0.70;99.90;;;;;;4997115;28;21882;-77
2021/01/10 04:21:45;;;;;;;46.47;26.40;;;0.60;99.90;;;;;;5001772;28;20441;-77
2021/01/10 04:24:11;;;;;;;49.10;28.73;;;0.60;99.90;;;;;;4980533;28;20462;-77
2021/01/10 04:26:38;;;;;;;65.77;30.40;;;0.70;99.90;;;;;;4986558;28;20450;-77
2021/01/10 04:29:05;;;;;;;65.53;30.57;;;0.70;99.90;;;;;;4997239;28;20216;-77
2021/01/10 04:31:31;;;;;;;57.63;26.60;;;0.80;99.90;;;;;;4995913;28;20838;-77
2021/01/10 04:33:56;;;;;;;49.70;29.37;;;0.90;99.90;;;;;;4977947;28;20408;-78
2021/01/10 04:36:27;;;;;;;51.13;28.40;;;0.80;99.90;;;;;;4963301;28;20772;-76
2021/01/10 04:38:52;;;;;;;48.23;29.07;;;0.80;99.90;;;;;;4978098;28;20212;-76
2021/01/10 04:41:19;;;;;;;52.17;29.27;;;0.80;99.90;;;;;;4995870;28;20463;-77
2021/01/10 04:43:45;;;;;;;49.23;27.13;;;0.90;99.90;;;;;;4978224;28;20208;-78
2021/01/10 04:46:11;;;;;;;60.97;27.87;;;0.90;99.90;;;;;;4962594;28;20413;-77
2021/01/10 04:48:38;;;;;;;57.33;29.83;;;0.80;99.90;;;;;;4995913;28;20437;-77
2021/01/10 04:51:04;;;;;;;54.47;28.00;;;0.90;99.90;;;;;;4981236;28;21125;-77
2021/01/10 04:53:34;;;;;;;54.07;26.40;;;0.90;99.90;;;;;;5000068;28;20407;-77
2021/01/10 04:56:03;;;;;;;53.63;28.47;;;0.80;99.90;;;;;;4978385;28;20414;-77
2021/01/10 04:58:29;;;;;;;58.83;28.97;;;0.90;99.90;;;;;;5000262;28;20421;-77
2021/01/10 05:00:59;;;;;;;56.27;28.47;;;0.80;99.90;;;;;;4987965;28;20424;-77
2021/01/10 05:03:25;;;;;;;47.40;27.83;;;0.80;99.90;;;;;;4997251;28;22565;-77
2021/01/10 05:05:52;;;;;;;56.20;29.17;;;0.80;99.90;;;;;;4977927;28;20393;-77
2021/01/10 05:08:18;;;;;;;56.00;27.93;;;0.80;99.90;;;;;;4977552;28;20426;-78
2021/01/10 05:10:44;;;;;;;71.30;28.17;;;0.90;99.90;;;;;;4978078;28;20700;-77
2021/01/10 05:13:10;;;;;;;50.70;28.80;;;0.90;99.90;;;;;;4996531;28;20229;-77
2021/01/10 05:15:37;;;;;;;57.20;27.70;;;0.80;99.90;;;;;;4997860;28;20895;-77
2021/01/10 05:18:04;;;;;;;51.30;28.07;;;0.70;99.90;;;;;;4997644;28;20228;-77
2021/01/10 05:20:31;;;;;;;55.50;26.97;;;0.70;99.90;;;;;;4995534;28;20536;-76
2021/01/10 05:23:01;;;;;;;65.10;31.87;;;0.70;99.90;;;;;;4994289;28;20494;-77
2021/01/10 05:25:27;;;;;;;53.50;31.73;;;0.80;99.90;;;;;;4983875;28;20476;-77
2021/01/10 05:27:55;;;;;;;52.23;31.87;;;0.80;99.90;;;;;;4996132;28;20489;-77
2021/01/10 05:30:31;;;;;;;59.47;28.00;;;0.90;99.90;;;;;;4979246;28;20424;-76
2021/01/10 05:33:03;;;;;;;55.17;28.90;;;0.80;99.90;;;;;;4979753;28;20394;-76
2021/01/10 05:35:46;;;;;;;60.37;30.10;;;0.90;99.90;;;;;;4981972;28;20395;-77
2021/01/10 05:38:29;;;;;;;56.77;28.90;;;0.90;99.90;;;;;;4978821;28;20547;-77
2021/01/10 05:40:57;;;;;;;68.53;31.77;;;0.90;99.90;;;;;;4983503;28;20466;-76
2021/01/10 05:43:23;;;;;;;55.33;29.43;;;1.00;99.90;;;;;;4993454;28;20393;-77
2021/01/10 05:45:50;;;;;;;57.57;30.00;;;1.00;99.90;;;;;;4963241;28;20521;-77
2021/01/10 05:48:16;;;;;;;53.83;28.83;;;1.00;99.90;;;;;;4980665;28;20397;-76
2021/01/10 05:50:48;;;;;;;54.93;29.50;;;1.00;99.90;;;;;;4995423;28;20438;-76
2021/01/10 05:53:18;;;;;;;60.30;29.73;;;1.00;99.90;;;;;;4981583;28;20733;-78
2021/01/10 05:55:58;;;;;;;63.27;30.80;;;1.10;99.90;;;;;;4979475;28;20485;-76
2021/01/10 05:58:26;;;;;;;60.30;30.47;;;1.10;99.90;;;;;;4998573;28;20923;-77
2021/01/10 06:00:52;;;;;;;74.03;32.07;;;1.10;99.90;;;;;;4998546;28;20477;-77
2021/01/10 06:03:20;;;;;;;62.60;32.20;;;1.00;99.90;;;;;;4961932;28;20484;-77
2021/01/10 06:05:59;;;;;;;73.63;35.70;;;1.10;99.90;;;;;;4978114;28;20957;-76
2021/01/10 06:08:30;;;;;;;69.53;36.20;;;1.00;99.90;;;;;;4993634;28;20900;-76
2021/01/10 06:11:19;;;;;;;78.93;31.90;;;0.90;99.90;;;;;;4990734;28;20988;-76
2021/01/10 06:14:00;;;;;;;70.10;34.33;;;1.00;99.90;;;;;;4979593;28;20465;-76
2021/01/10 06:16:29;;;;;;;62.57;31.70;;;1.00;99.90;;;;;;4995707;28;20971;-76
2021/01/10 06:18:58;;;;;;;70.97;33.77;;;1.10;99.90;;;;;;4993183;28;20388;-77
2021/01/10 06:21:27;;;;;;;61.60;28.87;;;1.10;99.90;;;;;;4985390;28;20509;-77
2021/01/10 06:24:04;;;;;;;68.37;31.37;;;1.00;99.90;;;;;;4983113;28;21143;-77
2021/01/10 06:26:33;;;;;;;62.73;30.70;;;1.00;99.90;;;;;;5000564;28;20393;-77
2021/01/10 06:29:12;;;;;;;69.50;31.90;;;1.10;99.90;;;;;;4993483;28;20371;-77
2021/01/10 06:31:40;;;;;;;53.50;30.10;;;1.10;99.90;;;;;;4979684;28;20437;-77
2021/01/10 06:34:08;;;;;;;57.47;30.80;;;1.00;99.90;;;;;;4996662;28;20516;-77
2021/01/10 06:36:37;;;;;;;65.30;32.83;;;1.10;99.90;;;;;;4997549;28;20469;-77
2021/01/10 06:39:07;;;;;;;68.37;28.87;;;1.00;99.90;;;;;;4997071;28;20413;-77
2021/01/10 06:41:35;;;;;;;65.00;31.47;;;1.00;99.90;;;;;;4982214;28;20895;-77
2021/01/10 06:44:06;;;;;;;55.77;29.67;;;1.00;99.90;;;;;;4980352;28;20368;-77
2021/01/10 06:46:32;;;;;;;55.90;28.87;;;0.90;99.90;;;;;;4996845;28;20399;-78
2021/01/10 06:49:00;;;;;;;66.13;33.20;;;1.00;99.90;;;;;;4996537;28;20926;-77
2021/01/10 06:51:31;;;;;;;56.33;29.83;;;1.00;99.90;;;;;;4982267;28;20489;-77
2021/01/10 06:53:57;;;;;;;55.77;31.47;;;1.10;99.90;;;;;;4983352;28;20414;-78
2021/01/10 06:56:23;;;;;;;58.67;28.80;;;1.10;99.90;;;;;;4996235;28;20587;-77
2021/01/10 06:59:02;;;;;;;66.80;32.03;;;1.10;99.90;;;;;;4983396;28;20488;-77
2021/01/10 07:02:03;;;;;;;46.47;28.17;;;0.90;99.90;;;;;;4981764;28;20750;-78
2021/01/10 07:04:32;;;;;;;56.83;27.70;;;0.90;99.90;;;;;;4958110;28;20473;-77
2021/01/10 07:06:57;;;;;;;55.83;31.17;;;0.90;99.90;;;;;;4945022;28;20454;-77
2021/01/10 07:09:23;;;;;;;62.23;30.93;;;0.90;99.90;;;;;;4942219;28;20441;-77
2021/01/10 07:11:50;;;;;;;57.53;30.20;;;0.90;99.90;;;;;;4958935;28;20239;-77
2021/01/10 07:14:22;;;;;;;56.20;29.60;;;0.90;99.90;;;;;;4927558;28;20388;-77
2021/01/10 07:16:49;;;;;;;53.80;28.90;;;1.00;99.90;;;;;;4960567;28;20435;-77
2021/01/10 07:19:15;;;;;;;44.67;26.77;;;1.00;99.90;;;;;;4957047;28;20390;-77
2021/01/10 07:21:44;;;;;;;66.53;34.50;;;1.00;99.90;;;;;;4958156;28;20919;-76
2021/01/10 07:24:13;;;;;;;60.87;36.20;;;1.00;99.90;;;;;;4943276;28;20501;-77
2021/01/10 07:26:43;;;;;;;58.30;28.97;;;1.00;99.90;;;;;;4959478;28;20974;-77
2021/01/10 07:29:28;;;;;;;51.53;28.47;;;1.10;99.90;;;;;;4944279;28;20472;-78
2021/01/10 07:32:05;;;;;;;56.87;27.60;;;1.10;99.90;;;;;;4958718;28;20467;-79
2021/01/10 07:34:33;;;;;;;58.07;29.50;;;1.20;99.90;;;;;;4961287;28;20407;-78
2021/01/10 07:37:04;;;;;;;42.27;26.73;;;1.20;99.90;;;;;;4927396;28;20395;-77
2021/01/10 07:39:35;;;;;;;62.93;31.53;;;1.20;99.90;;;;;;4975738;28;20401;-78
2021/01/10 07:42:17;;;;;;;70.20;32.50;;;1.30;99.90;;;;;;4985792;28;20496;-77
2021/01/10 07:44:50;;;;;;;64.60;31.10;;;1.20;99.90;;;;;;4963684;28;21162;-77
2021/01/10 07:47:16;;;;;;;67.40;32.97;;;1.30;99.90;;;;;;4981272;28;20412;-76
2021/01/10 07:49:49;;;;;;;64.37;30.90;;;1.20;99.90;;;;;;4984623;28;20390;-77
2021/01/10 07:52:15;;;;;;;60.60;31.33;;;1.30;99.90;;;;;;4997915;28;20991;-77
2021/01/10 07:54:50;;;;;;;64.60;32.43;;;1.30;99.90;;;;;;4990558;28;20429;-77
2021/01/10 07:57:30;;;;;;;51.03;31.60;;;1.30;99.90;;;;;;4972332;28;20419;-76
2021/01/10 08:00:13;;;;;;;60.20;28.90;;;1.30;99.90;;;;;;4984561;28;20408;-77
2021/01/10 08:02:52;;;;;;;70.60;34.00;;;1.50;99.90;;;;;;4987363;28;20485;-78
2021/01/10 08:05:28;;;;;;;57.53;31.73;;;1.40;99.90;;;;;;4991162;28;21320;-76
2021/01/10 08:08:03;;;;;;;53.83;32.23;;;1.50;99.90;;;;;;5003519;28;20870;-77
2021/01/10 08:10:50;;;;;;;66.07;31.33;;;1.50;99.90;;;;;;4982490;28;20483;-77
2021/01/10 08:13:44;;;;;;;59.50;32.73;;;1.60;99.90;;;;;;4997272;28;20511;-79
2021/01/10 08:16:11;;;;;;;61.73;30.37;;;1.50;99.90;;;;;;4971788;28;20533;-78
2021/01/10 08:18:45;;;;;;;62.90;31.90;;;1.50;99.90;;;;;;4968131;28;20406;-78
2021/01/10 08:21:13;;;;;;;59.67;33.27;;;1.50;99.90;;;;;;5002435;28;20588;-78
2021/01/10 08:23:40;;;;;;;55.40;30.83;;;1.40;99.90;;;;;;5000777;28;21382;-78
2021/01/10 08:26:07;;;;;;;62.37;31.77;;;1.40;99.90;;;;;;4997101;28;20392;-78
2021/01/10 08:28:35;;;;;;;57.43;32.00;;;1.60;99.90;;;;;;4990324;28;20464;-79
2021/01/10 08:31:06;;;;;;;62.67;33.93;;;1.70;99.90;;;;;;5003911;28;20430;-78
2021/01/10 08:33:32;;;;;;;70.23;32.73;;;1.60;99.90;;;;;;5011083;28;20476;-78
2021/01/10 08:36:12;;;;;;;49.10;31.33;;;1.60;99.90;;;;;;5004418;28;20505;-79
2021/01/10 08:38:48;;;;;;;63.47;30.27;;;1.70;99.90;;;;;;5003866;28;20447;-78
2021/01/10 08:41:22;;;;;;;58.27;28.30;;;1.80;99.90;;;;;;4993452;28;20372;-78
2021/01/10 08:43:50;;;;;;;52.67;29.40;;;1.90;99.90;;;;;;4993556;28;20426;-78
2021/01/10 08:46:16;;;;;;;55.00;31.27;;;2.00;99.90;;;;;;4993907;28;20385;-77
2021/01/10 08:48:42;;;;;;;58.57;31.40;;;1.90;99.90;;;;;;5009065;28;20494;-76
2021/01/10 08:51:07;;;;;;;61.07;32.93;;;2.00;99.90;;;;;;4981386;28;20405;-77
2021/01/10 08:53:42;;;;;;;60.23;33.07;;;2.00;99.90;;;;;;4986195;28;20418;-76
2021/01/10 08:56:16;;;;;;;49.20;30.90;;;2.10;99.90;;;;;;4990700;28;20216;-77
2021/01/10 08:58:43;;;;;;;60.53;29.97;;;2.20;99.90;;;;;;4982984;28;20422;-77
2021/01/10 09:01:22;;;;;;;67.87;33.93;;;2.10;99.90;;;;;;4986507;28;20400;-76
2021/01/10 09:04:11;;;;;;;60.43;32.57;;;2.10;99.90;;;;;;4979197;28;20436;-77
2021/01/10 09:06:52;;;;;;;56.77;31.57;;;2.10;99.90;;;;;;4993367;28;20843;-78
2021/01/10 09:09:54;;;;;;;70.03;30.90;;;2.20;99.90;;;;;;5002019;28;20430;-78
2021/01/10 09:12:38;;;;;;;48.33;28.70;;;2.40;99.90;;;;;;4992919;28;20775;-77
2021/01/10 09:15:14;;;;;;;57.43;26.73;;;2.30;99.90;;;;;;5001879;28;20493;-77
2021/01/10 09:17:50;;;;;;;59.70;33.07;;;2.40;99.90;;;;;;4990068;28;20414;-77
2021/01/10 09:20:27;;;;;;;58.97;32.03;;;2.50;99.90;;;;;;4999781;28;20902;-77
2021/01/10 09:22:56;;;;;;;61.60;30.60;;;2.70;99.90;;;;;;4985215;28;20417;-78
2021/01/10 09:25:22;;;;;;;54.97;31.10;;;2.80;99.90;;;;;;4973792;28;20813;-77
2021/01/10 09:28:06;;;;;;;56.40;31.33;;;2.70;99.90;;;;;;4991744;28;20418;-77
2021/01/10 09:30:32;;;;;;;58.10;30.23;;;2.80;99.90;;;;;;4983787;28;20203;-76
2021/01/10 09:32:59;;;;;;;65.57;31.37;;;2.80;99.90;;;;;;4979913;28;20448;-77
2021/01/10 09:35:25;;;;;;;51.13;29.97;;;2.90;99.90;;;;;;4989156;28;20444;-77
2021/01/10 09:37:50;;;;;;;59.27;31.00;;;3.00;99.90;;;;;;4966649;28;20408;-77
2021/01/10 09:40:17;;;;;;;53.90;29.00;;;3.00;99.90;;;;;;4982902;28;20419;-78
2021/01/10 09:42:47;;;;;;;49.93;29.53;;;3.00;99.90;;;;;;4991247;28;20369;-77
2021/01/10 09:45:15;;;;;;;67.97;30.90;;;3.20;99.90;;;;;;4993852;28;20425;-77
2021/01/10 09:47:42;;;;;;;67.87;31.30;;;3.10;99.90;;;;;;4982959;28;20534;-77
2021/01/10 09:50:15;;;;;;;61.60;34.13;;;3.30;99.90;;;;;;4975227;28;20538;-76
2021/01/10 09:52:48;;;;;;;58.80;29.23;;;3.30;99.90;;;;;;4960321;28;21053;-76
2021/01/10 09:55:14;;;;;;;68.30;30.77;;;3.40;99.90;;;;;;4981069;28;20902;-76
2021/01/10 09:57:39;;;;;;;61.60;33.57;;;3.30;99.90;;;;;;4994082;28;21022;-76
2021/01/10 10:00:08;;;;;;;69.20;30.00;;;3.50;99.90;;;;;;4990282;28;20966;-76
2021/01/10 10:02:36;;;;;;;64.00;26.93;;;3.60;99.90;;;;;;5001427;28;20206;-76
2021/01/10 10:05:22;;;;;;;56.73;31.57;;;3.60;99.90;;;;;;4988780;28;20443;-77
2021/01/10 10:07:49;;;;;;;57.20;28.63;;;3.60;99.90;;;;;;4988749;28;20397;-77
2021/01/10 10:10:21;;;;;;;46.97;29.13;;;3.70;99.90;;;;;;4983136;28;20476;-77
2021/01/10 10:12:53;;;;;;;57.37;31.27;;;3.70;99.90;;;;;;5002224;28;20523;-77
2021/01/10 10:15:19;;;;;;;53.47;31.80;;;3.60;99.90;;;;;;5003309;28;20399;-77
2021/01/10 10:17:45;;;;;;;51.00;30.00;;;3.50;99.90;;;;;;4983021;28;20431;-77
2021/01/10 10:20:11;;;;;;;51.27;30.40;;;3.50;99.90;;;;;;5006855;28;20405;-77
2021/01/10 10:22:39;;;;;;;48.23;27.43;;;3.50;99.90;;;;;;4990512;28;20208;-76
2021/01/10 10:25:08;;;;;;;50.90;28.10;;;3.50;99.90;;;;;;4990478;28;20477;-78
2021/01/10 10:27:35;;;;;;;44.13;25.07;;;3.40;99.90;;;;;;4999919;28;21187;-76
2021/01/10 10:30:02;;;;;;;47.20;27.37;;;3.40;99.90;;;;;;4987646;28;20406;-76
2021/01/10 10:32:28;;;;;;;48.60;31.80;;;3.50;99.90;;;;;;5000926;28;20456;-78
2021/01/10 10:34:55;;;;;;;40.93;27.43;;;3.70;99.90;;;;;;4986871;28;20436;-77
2021/01/10 10:37:21;;;;;;;39.20;23.30;;;3.70;99.90;;;;;;4980365;28;20371;-76
2021/01/10 10:39:47;;;;;;;46.40;25.67;;;3.70;99.90;;;;;;4986232;28;20851;-76
2021/01/10 10:42:15;;;;;;;40.60;24.17;;;3.80;99.90;;;;;;5002310;28;20446;-77
2021/01/10 10:44:41;;;;;;;52.20;28.67;;;3.90;99.90;;;;;;4987249;28;20491;-76
2021/01/10 10:47:15;;;;;;;48.60;28.37;;;3.90;99.90;;;;;;5004267;28;20839;-77
2021/01/10 10:49:41;;;;;;;49.80;25.13;;;4.00;99.90;;;;;;4987419;28;20436;-77
2021/01/10 10:52:09;;;;;;;47.07;26.83;;;4.10;99.90;;;;;;4985858;28;20981;-76
2021/01/10 10:54:35;;;;;;;36.70;20.70;;;4.00;99.90;;;;;;4989877;28;20429;-76
2021/01/10 10:57:00;;;;;;;40.47;22.83;;;4.10;99.90;;;;;;4998413;28;20382;-76
2021/01/10 10:59:26;;;;;;;37.83;20.30;;;4.00;99.90;;;;;;4971294;28;20450;-76
2021/01/10 11:01:52;;;;;;;33.67;23.53;;;4.20;99.90;;;;;;4981223;28;20217;-76
2021/01/10 11:04:17;;;;;;;41.30;22.00;;;4.10;99.90;;;;;;4988788;28;20202;-76
2021/01/10 11:06:43;;;;;;;40.90;22.37;;;4.00;99.90;;;;;;4987377;28;20244;-77
2021/01/10 11:09:10;;;;;;;37.33;19.90;;;4.10;99.90;;;;;;4988081;28;20207;-75
2021/01/10 11:11:47;;;;;;;31.70;20.57;;;4.00;99.90;;;;;;4992352;28;20238;-76
2021/01/10 11:14:15;;;;;;;34.43;19.47;;;3.90;99.90;;;;;;4999687;28;20428;-76
2021/01/10 11:16:43;;;;;;;33.60;20.10;;;3.80;99.90;;;;;;4995998;28;20394;-76
2021/01/10 11:19:10;;;;;;;40.03;21.20;;;3.80;99.90;;;;;;5003735;28;20414;-76
2021/01/10 11:21:44;;;;;;;149.37;57.03;;;3.90;99.90;;;;;;4988803;28;20440;-76
2021/01/10 11:24:10;;;;;;;60.67;28.40;;;4.10;99.90;;;;;;5000966;28;20434;-76
2021/01/10 11:26:37;;;;;;;39.37;21.43;;;4.20;99.90;;;;;;4982663;28;20459;-77
2021/01/10 11:29:04;;;;;;;30.47;18.70;;;4.20;99.90;;;;;;4987065;28;20499;-76
2021/01/10 11:31:31;;;;;;;33.50;20.67;;;4.20;99.90;;;;;;4985940;28;20434;-76
2021/01/10 11:33:57;;;;;;;30.17;18.80;;;4.20;99.90;;;;;;4985328;28;20440;-77
2021/01/10 11:36:22;;;;;;;28.70;16.67;;;4.40;99.90;;;;;;4986002;28;20468;-77
2021/01/10 11:38:50;;;;;;;30.07;17.97;;;4.40;99.90;;;;;;4987336;28;20436;-76
2021/01/10 11:41:16;;;;;;;36.77;20.20;;;4.40;99.90;;;;;;5003508;28;20717;-77
2021/01/10 11:43:42;;;;;;;32.13;19.47;;;4.50;99.90;;;;;;4981361;28;20871;-76
2021/01/10 11:46:09;;;;;;;25.80;17.67;;;4.20;99.90;;;;;;5005343;28;20435;-76
2021/01/10 11:48:35;;;;;;;34.10;18.40;;;4.30;99.90;;;;;;5006740;28;20211;-77
2021/01/10 11:51:03;;;;;;;32.47;17.33;;;4.50;99.90;;;;;;5007085;28;20875;-76
2021/01/10 11:53:29;;;;;;;34.93;19.03;;;4.60;99.90;;;;;;4990451;28;20415;-76
2021/01/10 11:55:55;;;;;;;36.23;20.67;;;4.50;99.90;;;;;;4981918;28;21382;-78
2021/01/10 11:58:21;;;;;;;37.10;19.57;;;4.30;99.90;;;;;;4983815;28;20456;-78
2021/01/10 12:00:51;;;;;;;30.07;17.50;;;4.40;99.90;;;;;;5006711;28;20973;-78
2021/01/10 12:03:18;;;;;;;34.33;21.20;;;4.60;99.90;;;;;;5009830;28;20210;-78
2021/01/10 12:05:44;;;;;;;38.57;20.23;;;4.60;99.90;;;;;;5001539;28;20424;-77
2021/01/10 12:08:10;;;;;;;30.20;19.83;;;4.70;99.90;;;;;;4987648;28;20421;-77
2021/01/10 12:10:35;;;;;;;35.67;20.37;;;4.60;99.90;;;;;;4989978;28;20297;-79
2021/01/10 12:13:03;;;;;;;32.43;19.50;;;4.70;99.90;;;;;;4994436;28;20429;-78
2021/01/10 12:15:30;;;;;;;33.33;21.13;;;4.80;99.90;;;;;;4993443;28;20443;-78
2021/01/10 12:17:56;;;;;;;33.33;20.00;;;4.90;99.90;;;;;;4986907;28;20460;-78
2021/01/10 12:20:23;;;;;;;37.67;19.80;;;4.80;99.90;;;;;;4992659;28;20429;-77
2021/01/10 12:22:48;;;;;;;36.57;21.10;;;5.20;99.90;;;;;;5002633;28;23331;-77
2021/01/10 12:25:14;;;;;;;44.70;21.50;;;5.20;99.90;;;;;;4988041;28;20637;-77
2021/01/10 12:27:40;;;;;;;40.70;22.17;;;5.20;99.90;;;;;;4989573;28;20219;-77
2021/01/10 12:30:06;;;;;;;47.03;22.70;;;5.40;99.90;;;;;;4997043;28;20223;-77
2021/01/10 12:32:35;;;;;;;37.90;23.23;;;4.80;99.90;;;;;;4990823;28;20219;-77
2021/01/10 12:35:03;;;;;;;40.50;22.40;;;5.10;99.90;;;;;;4986684;28;20399;-76
2021/01/10 12:37:30;;;;;;;40.30;24.33;;;5.20;99.90;;;;;;5003334;28;20479;-77
2021/01/10 12:39:56;;;;;;;44.43;25.00;;;5.60;99.90;;;;;;4987413;28;20516;-77
2021/01/10 12:42:22;;;;;;;44.23;24.57;;;5.90;99.90;;;;;;4985613;28;20420;-77
2021/01/10 12:44:49;;;;;;;43.00;24.07;;;5.70;99.90;;;;;;4991269;28;20203;-77
2021/01/10 12:47:14;;;;;;;46.17;24.43;;;5.80;99.90;;;;;;4985215;28;20485;-77
2021/01/10 12:49:40;;;;;;;45.63;22.80;;;6.10;99.90;;;;;;4985670;28;20548;-77
2021/01/10 12:52:06;;;;;;;33.83;21.37;;;7.40;99.90;;;;;;5006461;28;20462;-77